New Orleans, Louisiana
Traffic Map
Current Weather Conditions
New Orleans, Louisiana
Overcast
Overcast
11°
Feels Like: 11°
Wind Chill: 11° Ceiling: 1000
Heat Index: 11° Visibility: 10mi
Dew Point: Wind: 6mph
Humidity: 76% Direction: 10° (N)
Pressure: 30.15in Gusts: 0mph
Raw Report DataKVSH 210035Z AUTO 01005KT 10SM OVC010 11/07 A3015 RMK AO1
Traffic Incident Summary
Active as of:
Severity:
Category:
InformationThere was an issue retrieving the traffic information for this location. Please try a different location or try again shortly.
Advertisements
Track Severe Weather on mobile